Aviation Digital Data Service (ADDS)

Output produced by METARs form (1803 UTC 21 November 2018)
found at http://www.aviationweather.gov/metar/data/
 
KRNH 211720Z 2118/2218 08007KT P6SM VCSH OVC050 
     FM220600 13006KT P6SM OVC050 
     FM220800 13007KT P6SM OVC025